aviador You're here:

LFRH Decoded Metar

LORIENT in FRANCE
Report Time2017-10-17 20:00:00
UTC Time2017-10-17 20:30:59
Flight Rules mvfr MVFR
Wind090° at 03 kt
W.Decomp.*RWY 07: 2.8 kt HW 1.1 kt RCW
RWY 02: 0.9 kt HW 2.9 kt RCW
W.Rank090° ranks 25
Current wind is below 090° avg. (6.6)
Visibility9999 m
Phenomena:N/A
Clouds:Scattered 010 Hf
Broken 013 Hf
Broken 019 Hf
Overcast 025 Hf
Overcast 098 Hf
Expected CloudBase > 400 ft AGL from Temp-Dew spread
Ceiling1,300 ft
Temp15°C (ISA 0)
Dew Point14°C (94% RH)
QNH1012 hPa
Density Alt427 ft
Elevation144 ft
Report Wrong Elevation
Raw Report
METAR LFRH 172000Z AUTO 09003KT 9999 BKN013 BKN019 OVC098 15/14 Q1012
TEMPO SCT010 OVC025 BECMG 15010KT=

Extra information for LFRH:More info

Metar Taf Metar & Taf Last 4 Metars F.Rules Stats Wind Profile Meteogram Temp Stats Airport Information Weather charts Add Link Nearby VenuesMetar ALERT Operation Metar Decoded Social comments